UKKKUKLU

Guest
Details From UKKK - ZHULIANY INTL
To UKLU - UZHHOROD INTL
Flight Number -
Tags generated
Created
Modified
Stats Distance 339 nm / 628 km
Max Altitude 34,000 ft / 10,363 m
Waypoints 8
Social Downloads 2
Likes 0
Share VATSIM

Download

Looking for another format? Having issues loading an existing format? Contact us
Advertisement - Login to hide

Notes

Basic altitude profile: - Ascent Rate: 2500ft/min - Ascent Speed: 250kts - Cruise Altitude: 35000ft - Cruise Speed: 420kts - Descent Rate: 1500ft/min - Descent Speed: 250kts Options: - Use NATs: yes - Use PACOTS: yes - Use low airways: yes - Use high airways: yes

Route

UKKK KEDUB B144 SORON UB144 IVF UKLU

ID Type Via Altitude Latitude Longitude Leg Dist Tot Dist Heading (true) Name
O UKKK APT - 0 ft / 0 m 50.40169˚ 30.44970˚ - 0 nm - ZHULIANY INTL
KEDUB FIX - 0 ft / 0 m 50.40143˚ 30.44989˚ 0 nm 0 nm 154° / 154° -
SL NDB B144 (AWY-LO) 10,000 ft / 3,048 m 50.18642˚ 29.56156˚ 36 nm 36 nm 250° / 249° SOLOVIIVKA NDB
BUDUK FIX B144 (AWY-LO) 20,800 ft / 6,340 m 50.04141˚ 28.96044˚ 24 nm 61 nm 250° / 249° -
SORON FIX B144 (AWY-LO) 26,000 ft / 7,925 m 49.76139˚ 27.84822˚ 46 nm 107 nm 249° / 248° -
NALAD FIX UB144 (AWY-HI) 34,000 ft / 10,363 m 49.38803˚ 26.44989˚ 58 nm 166 nm 248° / 247° -
IVF VOR UB144 (AWY-HI) 28,000 ft / 8,534 m 48.88466˚ 24.68990˚ 75 nm 241 nm 247° / 246° IVANO FRANKIVSK VOR-DME
O UKLU APT - 0 ft / 0 m 48.63428˚ 22.26336˚ 97 nm 338 nm 262° / 260° UZHHOROD INTL

Altitude Profile

Advertisement - Login to hide

Weather


0- 5 10 15 20 25 30 35+ Temperature / ° C

Clouds and Precipitation
Forecast for 2018-05-27 12:00 UTC. Updated 5 hours ago

Ground ~20,000 ft ~40,000 ft Winds

UKKK

Details ICAO UKKK (IEV)
Name ZHULIANY INTL
Region Ukraine
Timezone Europe/Kiev (UTC+3.0)
Stats Elevation 586 ft / 179 m (AMSL)
Location 50.401694° 30.449697°
Runways 1
Magnetic Variation 7.650° E

METAR

UKKK 271530Z 11003MPS 080V140 CAVOK 22/01 Q1024 R08/70D NOSIG

Decode

TAF

Not found

Departure Runways

ID Width Length Bearing (true) Bearing (mag) Surface Threshold Offset Overrun Length
08 161 ft / 49 m 5,926 ft / 1,806 m 86.02° 78.37° Concrete 0 ft / 0 m 0 ft / 0 m
26 161 ft / 49 m 5,926 ft / 1,806 m 266.04° 258.39° Concrete 0 ft / 0 m 1,132 ft / 345 m

UKLU

Details ICAO UKLU (UDJ)
Name UZHHOROD INTL
Region Ukraine
Timezone Europe/Uzhgorod (UTC+3.0)
Stats Elevation 383 ft / 117 m (AMSL)
Location 48.634278° 22.263355°
Runways 1
Magnetic Variation 5.595° E

METAR

UKLU 271500Z 35002MPS 310V040 9999 FEW040CB SCT040 27/17 Q1019 R10/090070 NOSIG

Decode

TAF

Not found

Destination Runways

ID Width Length Bearing (true) Bearing (mag) Surface Threshold Offset Overrun Length
10 131 ft / 40 m 6,682 ft / 2,037 m 103.38° 97.78° Concrete 0 ft / 0 m 0 ft / 0 m
28 131 ft / 40 m 6,682 ft / 2,037 m 283.40° 277.80° Concrete 1,765 ft / 538 m 0 ft / 0 m